Terminal Aerodrome Forecast
Issued by NWS

Current Version | Previous Version | Text Only | Print | Product List | Glossary On
Versions: 1 2 3 4 5 6 7 8 9 10 11 12 13 14 15 16 17 18 19 20 21 22 23 24 25 26
000
FTUS45 KGJT 021126
TAFTEX
TAF
KTEX 021126Z 0212/0312 00000KT 4SM BR OVC003
     FM021400 00000KT P6SM OVC030
     FM021800 29004KT P6SM VCSH OVC045
     FM030300 00000KT P6SM BKN140=

USA.gov is the U.S. government's official web portal to all federal, state and local government web resources and services.